Time;durP1;ratioP1;P1;durP2;ratioP2;P2;SDS_P1;SDS_P2;PMS_P1;PMS_P2;Temp;Humidity;BMP_temperature;BMP_pressure;BME280_temperature;BME280_humidity;BME280_pressure;Samples;Min_cycle;Max_cycle;Signal;HPM_P1;HPM_P2
2023/04/29 00:01:35;;;;;;;34.35;12.85;;;9.50;99.90;;;;;;5074735;28;20028;-79
2023/04/29 00:04:01;;;;;;;29.90;13.02;;;12.60;99.90;;;;;;5086004;28;20024;-79
2023/04/29 00:06:27;;;;;;;33.88;13.07;;;12.10;99.90;;;;;;5086429;28;20031;-79
2023/04/29 00:08:52;;;;;;;34.83;13.82;;;11.90;99.90;;;;;;5069362;28;20024;-79
2023/04/29 00:11:18;;;;;;;36.78;13.73;;;10.40;99.90;;;;;;5070066;28;20020;-79
2023/04/29 00:13:47;;;;;;;35.38;13.68;;;;;;;;;;5087171;28;20021;-79
2023/04/29 00:16:12;;;;;;;38.17;14.95;;;9.40;99.90;;;;;;5096762;28;20391;-80
2023/04/29 00:18:38;;;;;;;31.33;12.55;;;9.40;99.90;;;;;;5089520;28;20032;-79
2023/04/29 00:21:07;;;;;;;39.08;14.32;;;9.40;99.90;;;;;;5081981;28;20371;-79
2023/04/29 00:23:33;;;;;;;29.75;12.85;;;10.40;99.90;;;;;;5099915;28;20486;-79
2023/04/29 00:25:58;;;;;;;33.13;13.57;;;9.40;99.90;;;;;;5082079;28;20032;-80
2023/04/29 00:28:24;;;;;;;30.52;12.82;;;9.40;99.90;;;;;;5100970;28;20024;-79
2023/04/29 00:30:50;;;;;;;43.05;14.80;;;9.50;99.90;;;;;;5084502;28;20035;-78
2023/04/29 00:33:15;;;;;;;29.65;12.05;;;9.40;99.90;;;;;;5082760;28;20021;-80
2023/04/29 00:35:41;;;;;;;33.75;13.88;;;;;;;;;;5070311;28;20092;-80
2023/04/29 00:38:07;;;;;;;31.02;12.25;;;9.50;99.90;;;;;;5087818;28;20391;-80
2023/04/29 00:40:32;;;;;;;29.70;12.40;;;9.50;99.90;;;;;;5064228;28;20112;-78
2023/04/29 00:42:58;;;;;;;29.35;12.43;;;9.50;99.90;;;;;;5061976;28;20453;-80
2023/04/29 00:45:24;;;;;;;33.13;13.60;;;9.50;99.90;;;;;;5079023;28;20116;-80
2023/04/29 00:47:50;;;;;;;29.05;12.38;;;9.50;99.90;;;;;;5101000;28;20050;-80
2023/04/29 00:50:15;;;;;;;28.98;12.18;;;10.80;99.90;;;;;;5090073;28;20073;-80
2023/04/29 00:52:42;;;;;;;25.27;12.40;;;9.50;99.90;;;;;;5090911;28;20094;-80
2023/04/29 00:55:09;;;;;;;33.50;12.63;;;9.50;99.90;;;;;;5108641;28;20017;-81
2023/04/29 00:57:35;;;;;;;32.00;12.50;;;;;;;;;;5090884;28;20115;-81
2023/04/29 01:00:02;;;;;;;30.83;10.43;;;9.50;99.90;;;;;;5085453;28;20040;-81
2023/04/29 01:02:28;;;;;;;21.35;10.13;;;9.40;99.90;;;;;;5092084;28;20017;-80
2023/04/29 01:04:53;;;;;;;26.10;9.85;;;9.50;99.90;;;;;;5091673;28;20016;-80
2023/04/29 01:07:25;;;;;;;25.10;9.65;;;9.40;99.90;;;;;;5109582;28;20056;-80
2023/04/29 01:10:13;;;;;;;19.67;9.65;;;9.50;99.90;;;;;;5090895;28;20024;-80
2023/04/29 01:12:49;;;;;;;27.48;9.02;;;9.50;99.90;;;;;;5090994;28;20016;-81
2023/04/29 01:15:22;;;;;;;24.52;9.13;;;9.40;99.90;;;;;;5089410;28;20024;-80
2023/04/29 01:18:09;;;;;;;26.92;9.20;;;9.50;99.90;;;;;;5107941;28;20031;-80
2023/04/29 01:20:36;;;;;;;23.98;8.98;;;9.50;99.90;;;;;;5109604;28;20028;-80
2023/04/29 01:23:02;;;;;;;23.90;8.32;;;9.40;99.90;;;;;;5090128;28;20024;-81
2023/04/29 01:25:28;;;;;;;18.80;7.95;;;9.40;99.90;;;;;;5090198;28;20050;-79
2023/04/29 01:27:59;;;;;;;23.70;8.52;;;11.10;99.90;;;;;;5090107;28;20024;-79
2023/04/29 01:30:55;;;;;;;21.42;8.70;;;9.40;99.90;;;;;;5070573;28;20024;-78
2023/04/29 01:33:43;;;;;;;22.63;9.85;;;9.40;99.90;;;;;;5076426;28;20037;-80
2023/04/29 01:36:21;;;;;;;21.05;8.68;;;9.50;99.90;;;;;;5057844;28;20024;-78
2023/04/29 01:39:02;;;;;;;23.13;9.77;;;9.50;99.90;;;;;;5075498;28;20394;-78
2023/04/29 01:41:41;;;;;;;19.90;8.70;;;9.40;99.90;;;;;;5075497;28;20028;-79
2023/04/29 01:44:12;;;;;;;21.80;10.27;;;9.40;99.90;;;;;;5079949;28;20024;-79
2023/04/29 01:46:38;;;;;;;20.55;8.95;;;9.40;99.90;;;;;;5081363;28;20028;-79
2023/04/29 01:49:06;;;;;;;23.10;9.25;;;9.40;99.90;;;;;;5082136;28;20025;-79
2023/04/29 01:51:33;;;;;;;21.60;9.07;;;9.40;99.90;;;;;;5063395;28;20024;-79
2023/04/29 01:53:58;;;;;;;24.20;9.38;;;9.30;99.90;;;;;;5078773;28;20104;-79
2023/04/29 01:56:24;;;;;;;20.00;9.07;;;9.50;99.90;;;;;;5083003;28;20049;-79
2023/04/29 01:58:49;;;;;;;24.65;8.80;;;9.40;99.90;;;;;;5061693;28;20031;-79
2023/04/29 02:01:15;;;;;;;20.80;8.90;;;9.40;99.90;;;;;;5079225;28;20043;-79
2023/04/29 02:03:40;;;;;;;19.25;8.32;;;9.40;99.90;;;;;;5071889;28;20085;-79
2023/04/29 02:06:06;;;;;;;15.55;7.65;;;9.40;99.90;;;;;;5058501;28;20028;-79
2023/04/29 02:08:32;;;;;;;21.38;8.35;;;9.50;99.90;;;;;;5075284;28;20024;-79
2023/04/29 02:10:59;;;;;;;24.10;8.32;;;9.40;99.90;;;;;;5059361;28;20032;-79
2023/04/29 02:13:24;;;;;;;24.85;9.32;;;9.40;99.90;;;;;;5060027;28;20021;-79
2023/04/29 02:15:50;;;;;;;18.75;7.55;;;9.40;99.90;;;;;;5077728;28;20387;-80
2023/04/29 02:18:19;;;;;;;22.17;8.00;;;9.40;99.90;;;;;;5079758;28;20025;-79
2023/04/29 02:20:44;;;;;;;16.25;7.63;;;9.50;99.90;;;;;;5061583;28;20135;-79
2023/04/29 02:23:13;;;;;;;16.38;7.05;;;9.50;99.90;;;;;;5057142;28;20565;-78
2023/04/29 02:25:38;;;;;;;19.63;8.20;;;9.40;99.90;;;;;;5059175;28;20029;-79
2023/04/29 02:28:04;;;;;;;19.30;7.88;;;9.40;99.90;;;;;;5056825;28;20027;-79
2023/04/29 02:30:30;;;;;;;20.95;7.63;;;12.40;99.90;;;;;;5055896;28;20021;-78
2023/04/29 02:32:56;;;;;;;18.40;7.30;;;9.40;99.90;;;;;;5086454;28;20028;-79
2023/04/29 02:35:21;;;;;;;21.45;8.05;;;9.40;99.90;;;;;;5077349;28;20024;-79
2023/04/29 02:37:47;;;;;;;20.40;7.60;;;10.00;99.90;;;;;;5087831;28;20027;-80
2023/04/29 02:40:13;;;;;;;19.50;7.13;;;9.50;99.90;;;;;;5088747;28;20027;-79
2023/04/29 02:42:38;;;;;;;14.63;6.20;;;9.40;99.90;;;;;;5089382;28;20038;-80
2023/04/29 02:45:04;;;;;;;15.05;7.00;;;9.40;99.90;;;;;;5106393;28;20401;-79
2023/04/29 02:47:30;;;;;;;16.55;7.53;;;9.40;99.90;;;;;;5091116;28;20090;-80
2023/04/29 02:49:55;;;;;;;17.65;6.78;;;9.50;99.90;;;;;;5089192;28;20021;-81
2023/04/29 02:52:21;;;;;;;20.90;7.25;;;9.50;99.90;;;;;;5070096;28;20021;-80
2023/04/29 02:54:46;;;;;;;18.20;6.60;;;9.50;99.90;;;;;;5083000;28;20016;-79
2023/04/29 02:57:12;;;;;;;19.38;8.20;;;9.50;99.90;;;;;;5055894;28;20043;-78
2023/04/29 02:59:38;;;;;;;17.15;7.70;;;9.50;99.90;;;;;;5063266;28;20040;-79
2023/04/29 03:02:03;;;;;;;19.77;7.82;;;9.50;99.90;;;;;;5102533;28;20032;-79
2023/04/29 03:04:32;;;;;;;18.27;6.93;;;11.60;99.90;;;;;;5084176;28;20048;-79
2023/04/29 03:06:57;;;;;;;16.52;7.72;;;9.60;99.90;;;;;;5083634;28;20024;-79
2023/04/29 03:09:23;;;;;;;17.15;7.25;;;9.60;99.90;;;;;;5104424;28;20027;-80
2023/04/29 03:11:49;;;;;;;25.17;8.40;;;;;;;;;;5108622;28;20097;-80
2023/04/29 03:14:15;;;;;;;17.15;8.20;;;9.50;99.90;;;;;;5108819;28;20027;-80
2023/04/29 03:16:41;;;;;;;19.45;8.68;;;9.50;99.90;;;;;;5076950;28;20020;-80
2023/04/29 03:19:07;;;;;;;17.27;7.82;;;9.40;99.90;;;;;;5088818;28;20550;-80
2023/04/29 03:21:32;;;;;;;19.63;7.80;;;9.50;99.90;;;;;;5087454;28;20364;-79
2023/04/29 03:23:58;;;;;;;18.58;7.80;;;9.40;99.90;;;;;;5069482;28;20024;-80
2023/04/29 03:26:24;;;;;;;20.95;7.53;;;;;;;;;;5088535;28;20036;-79
2023/04/29 03:28:50;;;;;;;18.08;8.73;;;9.40;99.90;;;;;;5088932;28;20031;-80
2023/04/29 03:31:16;;;;;;;21.15;7.88;;;11.80;99.90;;;;;;5088070;28;20020;-80
2023/04/29 03:33:42;;;;;;;18.63;8.20;;;9.50;99.90;;;;;;5090375;28;20016;-80
2023/04/29 03:36:08;;;;;;;22.70;9.77;;;9.50;99.90;;;;;;5108755;28;20020;-80
2023/04/29 03:38:34;;;;;;;18.17;7.72;;;9.50;99.90;;;;;;5108160;28;20019;-80
2023/04/29 03:40:59;;;;;;;21.13;8.40;;;9.40;99.90;;;;;;5089786;28;20028;-79
2023/04/29 03:43:25;;;;;;;19.58;7.82;;;10.60;99.90;;;;;;5108504;28;20036;-79
2023/04/29 03:45:51;;;;;;;21.10;9.63;;;9.30;99.90;;;;;;5073126;28;20037;-79
2023/04/29 03:48:17;;;;;;;19.80;7.40;;;9.40;99.90;;;;;;5072463;28;20475;-79
2023/04/29 03:50:43;;;;;;;21.77;8.52;;;9.40;99.90;;;;;;5072805;28;20029;-79
2023/04/29 03:53:08;;;;;;;27.25;9.07;;;11.30;99.90;;;;;;5073206;28;20089;-79
2023/04/29 03:55:34;;;;;;;21.73;7.88;;;9.40;99.90;;;;;;5073280;28;20039;-79
2023/04/29 03:57:59;;;;;;;22.75;8.73;;;9.40;99.90;;;;;;5079614;28;20025;-80
2023/04/29 04:00:25;;;;;;;19.85;8.20;;;9.50;99.90;;;;;;5094764;28;20020;-80
2023/04/29 04:02:51;;;;;;;17.60;8.25;;;9.50;99.90;;;;;;5089506;28;20089;-79
2023/04/29 04:05:19;;;;;;;20.20;8.25;;;9.50;99.90;;;;;;5069588;28;20021;-81
2023/04/29 04:07:45;;;;;;;19.05;8.00;;;9.50;99.90;;;;;;5088596;28;20016;-80
2023/04/29 04:10:11;;;;;;;21.48;8.35;;;12.50;99.90;;;;;;5066937;28;20024;-80
2023/04/29 04:12:36;;;;;;;24.67;9.68;;;11.80;99.90;;;;;;5067157;28;20494;-80
2023/04/29 04:15:03;;;;;;;16.92;8.35;;;9.40;99.90;;;;;;5084555;28;20017;-80
2023/04/29 04:17:28;;;;;;;22.20;8.63;;;9.50;99.90;;;;;;5092838;28;20019;-80
2023/04/29 04:19:54;;;;;;;19.23;9.20;;;9.50;99.90;;;;;;5110294;28;20032;-80
2023/04/29 04:22:20;;;;;;;21.60;8.68;;;9.50;99.90;;;;;;5106254;28;20024;-79
2023/04/29 04:24:45;;;;;;;19.73;8.10;;;9.50;99.90;;;;;;5104786;28;20059;-79
2023/04/29 04:27:12;;;;;;;26.88;9.73;;;11.10;99.90;;;;;;5104929;28;20038;-80
2023/04/29 04:29:39;;;;;;;21.52;9.23;;;9.50;99.90;;;;;;5105242;28;20016;-79
2023/04/29 04:32:05;;;;;;;24.30;9.23;;;9.50;99.90;;;;;;5081179;28;20055;-79
2023/04/29 04:34:33;;;;;;;23.27;8.73;;;9.50;99.90;;;;;;5087413;28;20021;-79
2023/04/29 04:36:59;;;;;;;21.42;8.80;;;9.50;99.90;;;;;;5069585;28;20063;-79
2023/04/29 04:39:25;;;;;;;22.08;9.00;;;11.30;99.90;;;;;;5061650;28;20024;-79
2023/04/29 04:41:50;;;;;;;15.25;7.45;;;9.50;99.90;;;;;;5079108;28;20029;-78
2023/04/29 04:44:16;;;;;;;18.13;9.27;;;10.50;99.90;;;;;;5076719;28;20544;-78
2023/04/29 04:46:42;;;;;;;18.10;7.63;;;9.40;99.90;;;;;;5083303;28;20021;-79
2023/04/29 04:49:07;;;;;;;19.63;8.18;;;9.50;99.90;;;;;;5082233;28;20048;-77
2023/04/29 04:51:35;;;;;;;17.90;7.80;;;9.40;99.90;;;;;;5076980;28;20016;-79
2023/04/29 04:54:01;;;;;;;17.80;7.27;;;9.40;99.90;;;;;;5076224;28;20030;-78
2023/04/29 04:56:26;;;;;;;15.50;7.53;;;9.50;99.90;;;;;;5058800;28;20020;-78
2023/04/29 04:58:52;;;;;;;14.45;7.00;;;9.50;99.90;;;;;;5075400;28;20020;-78
2023/04/29 05:01:18;;;;;;;15.75;7.32;;;9.40;99.90;;;;;;5076065;28;20384;-78
2023/04/29 05:03:43;;;;;;;14.20;6.43;;;9.50;99.90;;;;;;5072717;28;20476;-78
2023/04/29 05:06:09;;;;;;;19.05;7.65;;;9.50;99.90;;;;;;5096100;28;20051;-79
2023/04/29 05:08:35;;;;;;;12.25;6.03;;;9.50;99.90;;;;;;5096388;28;20069;-79
2023/04/29 05:11:00;;;;;;;13.43;6.57;;;9.60;99.90;;;;;;5077998;28;20016;-78
2023/04/29 05:13:26;;;;;;;16.10;6.18;;;9.50;99.90;;;;;;5096240;28;20020;-78
2023/04/29 05:15:52;;;;;;;15.75;6.43;;;;;;;;;;5078342;28;20016;-79
2023/04/29 05:18:18;;;;;;;17.63;7.28;;;9.60;99.90;;;;;;5082363;28;20028;-78
2023/04/29 05:20:43;;;;;;;13.18;6.90;;;9.60;99.90;;;;;;5058036;28;20549;-79
2023/04/29 05:23:09;;;;;;;14.40;8.00;;;10.90;99.90;;;;;;5075684;28;20032;-79
2023/04/29 05:25:37;;;;;;;22.25;8.27;;;11.00;99.90;;;;;;5076012;28;20390;-79
2023/04/29 05:28:05;;;;;;;14.90;7.18;;;9.80;99.90;;;;;;5057264;28;20029;-78
2023/04/29 05:30:34;;;;;;;17.25;7.30;;;9.90;99.90;;;;;;5075801;28;20475;-78
2023/04/29 05:32:59;;;;;;;22.88;8.32;;;9.90;99.90;;;;;;5076251;28;20024;-78
2023/04/29 05:35:25;;;;;;;19.70;7.90;;;10.00;99.90;;;;;;5082975;28;20020;-80
2023/04/29 05:37:50;;;;;;;19.30;7.82;;;10.00;99.90;;;;;;5102549;28;20052;-80
2023/04/29 05:40:16;;;;;;;21.02;7.97;;;9.90;99.90;;;;;;5103116;28;20055;-80
2023/04/29 05:42:42;;;;;;;26.55;9.30;;;10.00;99.90;;;;;;5103373;28;20073;-79
2023/04/29 05:45:08;;;;;;;19.75;8.75;;;12.30;99.90;;;;;;5102227;28;20031;-80
2023/04/29 05:47:33;;;;;;;19.27;8.43;;;10.00;99.90;;;;;;5083671;28;20067;-79
2023/04/29 05:49:59;;;;;;;24.83;8.00;;;12.00;99.90;;;;;;5102366;28;20024;-79
2023/04/29 05:52:25;;;;;;;19.45;8.38;;;10.00;99.90;;;;;;5084587;28;20028;-79
2023/04/29 05:54:50;;;;;;;23.48;9.13;;;9.90;99.90;;;;;;5105102;28;20028;-79
2023/04/29 05:57:16;;;;;;;18.65;7.70;;;10.00;99.90;;;;;;5086773;28;20107;-80
2023/04/29 05:59:42;;;;;;;18.77;7.82;;;12.50;99.90;;;;;;5083261;28;20043;-79
2023/04/29 06:02:07;;;;;;;20.70;7.88;;;13.00;99.90;;;;;;5085615;28;20025;-80
2023/04/29 06:04:33;;;;;;;18.65;7.78;;;10.00;99.90;;;;;;5086987;28;20039;-80
2023/04/29 06:06:59;;;;;;;18.20;7.68;;;10.10;99.90;;;;;;5066524;28;20025;-80
2023/04/29 06:09:24;;;;;;;21.65;7.75;;;10.10;99.90;;;;;;5063085;28;20120;-78
2023/04/29 06:11:50;;;;;;;15.70;7.35;;;10.20;99.90;;;;;;5064859;28;20021;-79
2023/04/29 06:14:16;;;;;;;16.52;7.68;;;10.30;99.90;;;;;;5081792;28;20026;-78
2023/04/29 06:16:42;;;;;;;15.90;7.57;;;10.50;99.90;;;;;;5057510;28;20387;-78
2023/04/29 06:19:08;;;;;;;18.88;7.30;;;10.50;99.90;;;;;;5079491;28;20042;-78
2023/04/29 06:21:33;;;;;;;19.02;7.07;;;10.50;99.90;;;;;;5059841;28;20084;-80
2023/04/29 06:23:59;;;;;;;17.27;8.25;;;13.50;99.90;;;;;;5063978;28;20035;-79
2023/04/29 06:26:24;;;;;;;16.88;7.72;;;11.20;99.90;;;;;;5083232;28;20032;-79
2023/04/29 06:28:50;;;;;;;14.65;7.47;;;10.70;99.90;;;;;;5083482;28;20336;-79
2023/04/29 06:31:16;;;;;;;17.73;6.82;;;;;;;;;;5082093;28;20021;-80
2023/04/29 06:33:42;;;;;;;19.55;6.90;;;;;;;;;;5071298;28;20028;-79
2023/04/29 06:36:08;;;;;;;18.45;6.72;;;10.70;99.90;;;;;;5103555;28;20433;-80
2023/04/29 06:38:33;;;;;;;18.45;6.72;;;10.90;99.90;;;;;;5090866;28;20141;-80
2023/04/29 06:40:59;;;;;;;18.30;7.10;;;10.80;99.90;;;;;;5092525;28;20012;-80
2023/04/29 06:43:31;;;;;;;15.02;5.85;;;10.90;99.90;;;;;;5091338;28;20028;-80
2023/04/29 06:45:57;;;;;;;20.73;7.78;;;10.90;99.90;;;;;;5104263;28;20034;-79
2023/04/29 06:48:23;;;;;;;11.50;5.72;;;11.00;99.90;;;;;;5100618;28;20016;-79
2023/04/29 06:50:56;;;;;;;18.25;5.57;;;11.00;99.90;;;;;;5086769;28;20016;-79
2023/04/29 06:53:22;;;;;;;14.38;6.00;;;11.00;99.90;;;;;;5061894;28;20027;-80
2023/04/29 06:55:47;;;;;;;14.23;5.18;;;11.90;99.90;;;;;;5076628;28;20398;-79
2023/04/29 06:58:17;;;;;;;17.05;6.20;;;11.20;99.90;;;;;;5076937;28;20092;-79
2023/04/29 07:00:49;;;;;;;13.95;6.65;;;11.40;99.90;;;;;;5057049;28;20123;-78
2023/04/29 07:03:16;;;;;;;14.00;5.75;;;11.70;99.90;;;;;;5056371;28;20020;-79
2023/04/29 07:05:44;;;;;;;16.70;6.97;;;11.80;99.90;;;;;;5059473;28;20028;-80
2023/04/29 07:08:10;;;;;;;15.32;6.18;;;11.80;99.90;;;;;;5059578;28;20107;-79
2023/04/29 07:10:36;;;;;;;18.35;6.25;;;12.20;99.90;;;;;;5057938;28;20016;-79
2023/04/29 07:13:02;;;;;;;15.45;6.47;;;11.70;99.90;;;;;;5056378;28;20028;-79
2023/04/29 07:15:29;;;;;;;16.48;6.22;;;13.50;99.90;;;;;;5058922;28;20016;-79
2023/04/29 07:17:55;;;;;;;13.88;6.25;;;12.50;99.90;;;;;;5077349;28;20507;-79
2023/04/29 07:20:21;;;;;;;17.02;6.72;;;11.40;99.90;;;;;;5061149;28;20201;-80
2023/04/29 07:22:46;;;;;;;13.07;6.18;;;12.30;99.90;;;;;;5060157;28;20130;-79
2023/04/29 07:25:13;;;;;;;21.80;7.40;;;11.20;99.90;;;;;;5065305;28;20020;-80
2023/04/29 07:27:38;;;;;;;13.80;6.18;;;11.10;99.90;;;;;;5098239;28;20017;-80
2023/04/29 07:30:05;;;;;;;23.88;6.85;;;11.10;99.90;;;;;;5097909;28;20028;-80
2023/04/29 07:32:31;;;;;;;15.23;6.05;;;11.10;99.90;;;;;;5079872;28;20050;-80
2023/04/29 07:34:57;;;;;;;17.20;7.45;;;11.10;99.90;;;;;;5079471;28;20024;-80
2023/04/29 07:37:23;;;;;;;14.70;4.90;;;11.20;99.90;;;;;;5079859;28;20035;-80
2023/04/29 07:39:49;;;;;;;14.13;5.15;;;12.90;99.90;;;;;;5097682;28;20020;-80
2023/04/29 07:42:14;;;;;;;17.10;5.25;;;11.30;99.90;;;;;;5098134;28;20534;-80
2023/04/29 07:44:40;;;;;;;15.02;5.28;;;11.30;99.90;;;;;;5098598;28;20031;-80
2023/04/29 07:47:06;;;;;;;14.27;6.22;;;11.50;99.90;;;;;;5079597;28;20016;-80
2023/04/29 07:49:31;;;;;;;14.90;6.15;;;11.40;99.90;;;;;;5079762;28;20028;-79
2023/04/29 07:51:57;;;;;;;18.88;6.30;;;11.40;99.90;;;;;;5078407;28;20077;-80
2023/04/29 07:54:22;;;;;;;14.00;4.95;;;11.30;99.90;;;;;;5078319;28;20028;-80
2023/04/29 07:56:48;;;;;;;16.58;5.68;;;11.30;99.90;;;;;;5060260;28;20483;-80
2023/04/29 07:59:14;;;;;;;16.00;5.15;;;11.30;99.90;;;;;;5078402;28;20032;-79
2023/04/29 08:01:41;;;;;;;10.93;4.32;;;11.20;99.90;;;;;;5079014;28;20151;-80
2023/04/29 08:04:06;;;;;;;13.88;4.43;;;11.20;99.90;;;;;;5062345;28;20030;-80
2023/04/29 08:06:33;;;;;;;13.95;4.70;;;11.20;99.90;;;;;;5094018;28;20032;-80
2023/04/29 08:08:59;;;;;;;14.18;4.75;;;11.20;99.90;;;;;;5079495;28;20020;-80
2023/04/29 08:11:25;;;;;;;10.25;4.15;;;;;;;;;;5080325;28;20441;-80
2023/04/29 08:13:51;;;;;;;15.15;5.65;;;11.50;99.90;;;;;;5097877;28;20020;-80
2023/04/29 08:16:17;;;;;;;14.48;4.78;;;12.00;99.90;;;;;;5096310;28;20514;-80
2023/04/29 08:18:43;;;;;;;14.25;3.55;;;11.70;99.90;;;;;;5087356;28;20020;-79
2023/04/29 08:21:10;;;;;;;13.10;3.80;;;11.80;99.90;;;;;;5096283;28;20028;-80
2023/04/29 08:23:39;;;;;;;13.50;3.30;;;11.80;99.90;;;;;;5098439;28;20028;-78
2023/04/29 08:26:05;;;;;;;11.10;3.60;;;11.70;99.90;;;;;;5094395;28;20039;-78
2023/04/29 08:28:30;;;;;;;11.50;3.80;;;11.70;99.90;;;;;;5090280;28;20529;-77
2023/04/29 08:30:56;;;;;;;13.60;3.80;;;12.90;99.90;;;;;;5058587;28;20082;-77
2023/04/29 08:33:22;;;;;;;8.05;3.30;;;11.70;99.90;;;;;;5076647;28;20066;-79
2023/04/29 08:35:48;;;;;;;12.18;4.07;;;11.70;99.90;;;;;;5076476;28;20032;-78
2023/04/29 08:38:13;;;;;;;13.05;4.43;;;11.70;99.90;;;;;;5080164;28;20384;-80
2023/04/29 08:40:45;;;;;;;20.05;5.15;;;11.70;99.90;;;;;;5061659;28;20028;-78
2023/04/29 08:43:14;;;;;;;12.60;3.25;;;11.80;99.90;;;;;;5076588;28;20024;-78
2023/04/29 08:45:41;;;;;;;7.35;3.58;;;11.90;99.90;;;;;;5063744;28;20567;-79
2023/04/29 08:48:07;;;;;;;10.88;3.80;;;11.90;99.90;;;;;;5082418;28;20369;-78
2023/04/29 08:50:40;;;;;;;11.85;4.22;;;12.00;99.90;;;;;;5068941;28;20046;-79
2023/04/29 08:53:10;;;;;;;14.32;3.10;;;12.00;99.90;;;;;;5066886;28;20028;-78
2023/04/29 08:55:41;;;;;;;14.75;4.65;;;12.10;99.90;;;;;;5059298;28;20090;-77
2023/04/29 08:58:07;;;;;;;10.77;3.10;;;12.50;99.90;;;;;;5096776;28;20479;-77
2023/04/29 09:00:37;;;;;;;11.60;2.80;;;12.70;99.90;;;;;;5097488;28;20081;-76
2023/04/29 09:03:33;;;;;;;8.82;2.97;;;13.10;99.90;;;;;;5078007;28;20437;-75
2023/04/29 09:06:03;;;;;;;7.90;2.70;;;13.60;99.90;;;;;;5096436;28;20050;-73
2023/04/29 09:08:29;;;;;;;4.43;1.95;;;14.00;99.90;;;;;;5077714;28;20384;-75
2023/04/29 09:10:56;;;;;;;7.85;2.08;;;14.20;99.90;;;;;;5071311;28;20073;-76
2023/04/29 09:13:26;;;;;;;5.72;2.15;;;14.40;99.90;;;;;;5075890;28;20108;-77
2023/04/29 09:15:52;;;;;;;11.45;2.10;;;14.50;99.90;;;;;;5075648;28;20020;-76
2023/04/29 09:18:50;;;;;;;8.00;2.35;;;14.30;99.90;;;;;;5075643;28;20112;-76
2023/04/29 09:21:20;;;;;;;8.75;1.90;;;14.20;99.90;;;;;;5057783;28;20036;-74
2023/04/29 09:23:47;;;;;;;52.55;6.82;;;14.60;99.90;;;;;;5075733;28;20025;-75
2023/04/29 09:26:14;;;;;;;4.28;2.10;;;15.60;99.90;;;;;;5078012;28;20382;-75
2023/04/29 09:28:43;;;;;;;6.90;1.75;;;14.90;99.90;;;;;;5095495;28;20100;-76
2023/04/29 09:31:13;;;;;;;5.78;1.55;;;15.10;99.90;;;;;;5095890;28;20083;-74
2023/04/29 09:33:56;;;;;;;6.65;1.33;;;15.00;99.90;;;;;;5095525;28;20020;-74
2023/04/29 09:36:38;;;;;;;4.55;1.27;;;14.70;99.90;;;;;;5095791;28;20111;-75
2023/04/29 09:39:08;;;;;;;6.53;2.20;;;14.60;99.90;;;;;;5076921;28;20073;-75
2023/04/29 09:41:34;;;;;;;6.13;1.75;;;14.30;99.90;;;;;;5096060;28;20024;-74
2023/04/29 09:44:04;;;;;;;9.65;1.50;;;14.30;99.90;;;;;;5095296;28;20035;-75
2023/04/29 09:46:31;;;;;;;7.55;1.40;;;14.40;99.90;;;;;;5095240;28;20516;-75
2023/04/29 09:48:57;;;;;;;8.13;1.27;;;14.40;99.90;;;;;;5077089;28;20039;-75
2023/04/29 09:51:23;;;;;;;3.92;1.50;;;14.50;99.90;;;;;;5095282;28;20009;-75
2023/04/29 09:53:49;;;;;;;5.45;1.05;;;14.50;99.90;;;;;;5095213;28;20027;-76
2023/04/29 09:56:15;;;;;;;4.55;1.27;;;14.80;99.90;;;;;;5081265;28;20399;-75
2023/04/29 09:58:41;;;;;;;3.10;1.48;;;14.80;99.90;;;;;;5073782;28;20056;-75
2023/04/29 10:01:08;;;;;;;4.43;1.40;;;14.90;99.90;;;;;;5076911;28;20032;-75
2023/04/29 10:03:36;;;;;;;7.43;1.40;;;14.90;99.90;;;;;;5076942;28;20077;-75
2023/04/29 10:06:04;;;;;;;5.78;1.92;;;14.70;99.90;;;;;;5076775;28;20486;-74
2023/04/29 10:08:31;;;;;;;6.07;1.38;;;14.60;99.90;;;;;;5094716;28;20016;-75
2023/04/29 10:11:01;;;;;;;2.80;0.73;;;14.70;99.90;;;;;;5094871;28;20027;-75
2023/04/29 10:13:27;;;;;;;2.90;0.80;;;14.70;99.90;;;;;;5095572;28;20016;-74
2023/04/29 10:16:22;;;;;;;5.57;1.42;;;14.60;99.90;;;;;;5094684;28;20047;-75
2023/04/29 10:19:08;;;;;;;4.32;1.52;;;14.80;99.90;;;;;;5080527;28;20487;-76
2023/04/29 10:21:34;;;;;;;4.18;1.17;;;14.80;99.90;;;;;;5095002;28;20384;-75
2023/04/29 10:24:02;;;;;;;3.10;1.05;;;14.70;99.90;;;;;;5094662;28;20024;-75
2023/04/29 10:26:28;;;;;;;4.57;1.15;;;14.70;99.90;;;;;;5094340;28;20607;-76
2023/04/29 10:29:02;;;;;;;4.45;1.40;;;14.70;99.90;;;;;;5092439;28;20107;-75
2023/04/29 10:31:29;;;;;;;4.75;1.58;;;15.40;99.90;;;;;;5074686;28;20020;-75
2023/04/29 10:33:56;;;;;;;7.00;1.60;;;15.20;99.90;;;;;;5056056;28;20020;-75
2023/04/29 10:36:23;;;;;;;4.75;1.23;;;15.30;99.90;;;;;;5055676;28;20024;-74
2023/04/29 10:38:53;;;;;;;2.63;0.73;;;15.60;99.90;;;;;;5073432;28;20046;-75
2023/04/29 10:41:33;;;;;;;2.40;1.20;;;15.80;99.90;;;;;;5073923;28;20028;-75
2023/04/29 10:43:59;;;;;;;4.05;1.00;;;15.90;99.90;;;;;;5055999;28;20372;-75
2023/04/29 10:46:25;;;;;;;3.38;0.55;;;16.40;99.90;;;;;;5081328;28;20028;-75
2023/04/29 10:49:03;;;;;;;5.18;0.82;;;16.70;99.90;;;;;;5079499;28;20032;-75
2023/04/29 10:51:35;;;;;;;2.72;1.27;;;16.90;99.90;;;;;;5073093;28;20024;-75
2023/04/29 10:54:15;;;;;;;1.83;0.60;;;17.10;99.90;;;;;;5073515;28;20029;-75
2023/04/29 10:56:49;;;;;;;2.33;0.75;;;17.20;99.90;;;;;;5069610;28;20484;-75
2023/04/29 10:59:26;;;;;;;2.55;0.85;;;17.20;99.10;;;;;;5093699;28;20517;-75
2023/04/29 11:01:53;;;;;;;2.60;0.60;;;17.10;99.60;;;;;;5076179;28;20024;-75
2023/04/29 11:04:19;;;;;;;2.90;0.65;;;16.80;98.70;;;;;;5079113;28;20085;-75
2023/04/29 11:06:50;;;;;;;3.53;0.73;;;16.50;99.90;;;;;;5073419;28;20605;-75
2023/04/29 11:09:26;;;;;;;4.28;0.73;;;16.60;99.90;;;;;;5055490;28;20115;-75
2023/04/29 11:11:56;;;;;;;9.00;1.23;;;16.70;99.90;;;;;;5073358;28;20027;-75
2023/04/29 11:14:26;;;;;;;4.72;1.27;;;17.30;99.90;;;;;;5073297;28;20017;-75
2023/04/29 11:16:57;;;;;;;4.75;1.13;;;17.70;99.30;;;;;;5073181;28;20077;-75
2023/04/29 11:19:34;;;;;;;1.63;0.45;;;17.70;99.80;;;;;;5085537;28;20020;-75
2023/04/29 11:22:12;;;;;;;3.80;0.60;;;17.80;98.80;;;;;;5093594;28;20051;-75
2023/04/29 11:24:59;;;;;;;1.60;0.70;;;17.80;99.90;;;;;;5093442;28;20028;-75
2023/04/29 11:27:26;;;;;;;2.80;0.68;;;18.00;98.30;;;;;;5075290;28;20390;-75
2023/04/29 11:30:00;;;;;;;2.13;0.40;;;18.20;99.50;;;;;;5093457;28;20023;-76
2023/04/29 11:32:30;;;;;;;4.72;0.73;;;18.90;98.50;;;;;;5092861;28;20028;-76
2023/04/29 11:35:07;;;;;;;3.40;0.32;;;19.00;99.10;;;;;;5075510;28;20506;-75
2023/04/29 11:37:33;;;;;;;1.85;0.70;;;19.40;97.10;;;;;;5075070;28;20076;-75
2023/04/29 11:40:02;;;;;;;4.97;0.25;;;19.50;96.00;;;;;;5075151;28;20471;-77
2023/04/29 11:42:28;;;;;;;2.38;0.50;;;19.80;93.80;;;;;;5075157;28;20020;-76
2023/04/29 11:44:59;;;;;;;2.95;0.65;;;20.00;95.20;;;;;;5093230;28;20035;-76
2023/04/29 11:47:29;;;;;;;1.33;0.40;;;20.30;93.60;;;;;;5074525;28;20466;-76
2023/04/29 11:50:08;;;;;;;0.85;0.30;;;20.50;91.70;;;;;;5093274;28;20090;-76
2023/04/29 11:52:36;;;;;;;2.50;0.50;;;20.40;91.60;;;;;;5093371;28;20024;-76
2023/04/29 11:55:07;;;;;;;3.25;0.57;;;20.50;89.00;;;;;;5093089;28;20020;-76
2023/04/29 11:57:33;;;;;;;2.20;0.50;;;20.40;89.50;;;;;;5092961;28;20141;-76
2023/04/29 11:59:58;;;;;;;1.23;0.25;;;20.60;89.50;;;;;;5074886;28;20054;-75
2023/04/29 12:02:34;;;;;;;1.20;0.75;;;20.50;84.50;;;;;;5076201;28;20391;-76
2023/04/29 12:05:04;;;;;;;3.15;0.30;;;20.40;85.90;;;;;;5078582;28;20054;-76
2023/04/29 12:07:30;;;;;;;1.13;0.55;;;20.70;86.80;;;;;;5097372;28;20599;-76
2023/04/29 12:09:56;;;;;;;2.15;0.93;;;20.70;86.00;;;;;;5079219;28;20037;-76
2023/04/29 12:12:22;;;;;;;1.20;0.30;;;21.00;86.30;;;;;;5097030;28;20024;-76
2023/04/29 12:14:49;;;;;;;2.80;0.70;;;21.20;82.50;;;;;;5097066;28;20024;-76
2023/04/29 12:17:16;;;;;;;2.65;0.60;;;20.80;75.90;;;;;;5077919;28;20032;-75
2023/04/29 12:19:43;;;;;;;3.03;0.98;;;20.80;73.90;;;;;;5096570;28;20057;-75
2023/04/29 12:22:09;;;;;;;4.93;1.30;;;20.40;79.00;;;;;;5078641;28;20031;-76
2023/04/29 12:24:38;;;;;;;2.90;0.80;;;20.40;81.10;;;;;;5096846;28;20024;-75
2023/04/29 12:27:08;;;;;;;2.45;0.32;;;20.70;80.00;;;;;;5078397;28;20101;-75
2023/04/29 12:29:36;;;;;;;2.72;0.50;;;20.60;78.50;;;;;;5096591;28;20023;-75
2023/04/29 12:32:01;;;;;;;2.53;1.00;;;20.60;80.70;;;;;;5096661;28;20103;-75
2023/04/29 12:34:28;;;;;;;2.45;0.40;;;20.80;81.30;;;;;;5058583;28;20763;-76
2023/04/29 12:37:03;;;;;;;7.90;0.88;;;21.20;75.50;;;;;;5058228;28;20024;-76
2023/04/29 12:39:30;;;;;;;3.08;0.88;;;21.20;76.10;;;;;;5076306;28;20064;-75
2023/04/29 12:42:00;;;;;;;3.25;0.93;;;21.40;76.00;;;;;;5076058;28;20030;-75
2023/04/29 12:44:33;;;;;;;1.73;0.70;;;21.30;77.30;;;;;;5076116;28;20031;-75
2023/04/29 12:47:09;;;;;;;2.88;0.50;;;21.10;71.60;;;;;;5075935;28;20387;-75
2023/04/29 12:49:36;;;;;;;1.25;0.75;;;21.10;73.60;;;;;;5058221;28;20437;-76